createdAt,value
2023-02-19T00:00:29.175Z,99570.00
2023-02-19T00:01:29.199Z,99566.00
2023-02-19T00:02:29.234Z,99567.00
2023-02-19T00:03:29.267Z,99564.00
2023-02-19T00:04:29.243Z,99564.00
2023-02-19T00:05:29.269Z,99566.00
2023-02-19T00:06:29.307Z,99564.00
2023-02-19T00:07:29.294Z,99568.00
2023-02-19T00:08:29.312Z,99567.00
2023-02-19T00:09:29.334Z,99565.00
2023-02-19T00:10:29.361Z,99566.00
2023-02-19T00:11:29.410Z,99562.00
2023-02-19T00:12:29.380Z,99565.00
2023-02-19T00:13:29.437Z,99565.00
2023-02-19T00:14:29.405Z,99571.00
2023-02-19T00:15:29.464Z,99567.00
2023-02-19T00:16:29.443Z,99570.00
2023-02-19T00:17:29.458Z,99572.00
2023-02-19T00:18:29.477Z,99572.00
2023-02-19T00:19:29.473Z,99569.00
2023-02-19T00:20:29.496Z,99574.00
2023-02-19T00:21:29.527Z,99570.00
2023-02-19T00:22:29.556Z,99565.00
2023-02-19T00:23:29.585Z,99563.00
2023-02-19T00:24:29.571Z,99559.00
2023-02-19T00:25:29.596Z,99553.00
2023-02-19T00:26:29.618Z,99551.00
2023-02-19T00:27:29.576Z,99552.00
2023-02-19T00:28:29.599Z,99550.00
2023-02-19T00:29:29.656Z,99551.00
2023-02-19T00:30:29.678Z,99553.00
2023-02-19T00:31:32.431Z,99555.00
2023-02-19T00:32:29.650Z,99546.00
2023-02-19T00:33:29.693Z,99544.00
2023-02-19T00:34:29.726Z,99533.00
2023-02-19T00:35:29.700Z,99543.00
2023-02-19T00:36:29.740Z,99544.00
2023-02-19T00:37:29.751Z,99543.00
2023-02-19T00:38:29.791Z,99537.00
2023-02-19T00:39:29.826Z,99535.00
2023-02-19T00:40:29.839Z,99538.00
2023-02-19T00:41:29.864Z,99546.00
2023-02-19T00:42:29.893Z,99541.00
2023-02-19T00:43:30.134Z,99545.00
2023-02-19T00:44:29.936Z,99545.00
2023-02-19T00:45:29.976Z,99545.00
2023-02-19T00:46:30.048Z,99544.00
2023-02-19T00:47:29.961Z,99542.00
2023-02-19T00:48:29.964Z,99540.00
2023-02-19T00:49:30.014Z,99539.00
2023-02-19T00:50:29.994Z,99541.00
2023-02-19T00:51:30.021Z,99543.00
2023-02-19T00:52:29.997Z,99543.00
2023-02-19T00:53:30.043Z,99544.00
2023-02-19T00:54:30.032Z,99545.00
2023-02-19T00:55:30.009Z,99534.00
2023-02-19T00:56:30.038Z,99535.00
2023-02-19T00:57:30.053Z,99530.00
2023-02-19T00:58:30.087Z,99525.00
2023-02-19T00:59:30.110Z,99522.00
2023-02-19T01:00:30.133Z,99517.00
2023-02-19T01:01:30.193Z,99520.00
2023-02-19T01:02:30.188Z,99517.00
2023-02-19T01:03:30.210Z,99516.00
2023-02-19T01:04:30.281Z,99513.00
2023-02-19T01:05:30.248Z,99514.00
2023-02-19T01:06:30.266Z,99516.00
2023-02-19T01:07:30.289Z,99510.00
2023-02-19T01:08:30.314Z,99512.00
2023-02-19T01:09:30.346Z,99504.00
2023-02-19T01:10:30.323Z,99499.00
2023-02-19T01:11:30.558Z,99500.00
2023-02-19T01:12:30.364Z,99502.00
2023-02-19T01:13:30.574Z,99499.00
2023-02-19T01:14:30.375Z,99508.00
2023-02-19T01:15:30.357Z,99504.00
2023-02-19T01:16:30.374Z,99516.00
2023-02-19T01:17:30.424Z,99513.00
2023-02-19T01:18:30.403Z,99507.00
2023-02-19T01:19:30.439Z,99504.00
2023-02-19T01:20:30.418Z,99507.00
2023-02-19T01:21:30.408Z,99503.00
2023-02-19T01:22:30.422Z,99493.00
2023-02-19T01:23:30.446Z,99494.00
2023-02-19T01:24:30.501Z,99493.00
2023-02-19T01:25:30.455Z,99503.00
2023-02-19T01:26:30.520Z,99500.00
2023-02-19T01:27:30.492Z,99501.00
2023-02-19T01:28:30.514Z,99497.00
2023-02-19T01:29:30.541Z,99504.00
2023-02-19T01:30:30.595Z,99495.00
2023-02-19T01:31:30.779Z,99502.00
2023-02-19T01:32:30.601Z,99504.00
2023-02-19T01:33:30.613Z,99500.00
2023-02-19T01:34:30.578Z,99498.00
2023-02-19T01:35:30.601Z,99497.00
2023-02-19T01:36:30.644Z,99505.00
2023-02-19T01:37:30.658Z,99502.00
2023-02-19T01:38:30.685Z,99502.00
2023-02-19T01:39:30.666Z,99495.00
2023-02-19T01:40:30.684Z,99494.00
2023-02-19T01:41:30.719Z,99491.00
2023-02-19T01:42:30.751Z,99495.00
2023-02-19T01:43:30.759Z,99486.00
2023-02-19T01:44:30.780Z,99481.00
2023-02-19T01:45:30.762Z,99477.00
2023-02-19T01:46:30.844Z,99468.00
2023-02-19T01:47:30.801Z,99470.00
2023-02-19T01:48:30.822Z,99471.00
2023-02-19T01:49:30.888Z,99476.00
2023-02-19T01:50:30.856Z,99473.00
2023-02-19T01:51:30.883Z,99469.00
2023-02-19T01:52:30.906Z,99458.00
2023-02-19T01:53:30.918Z,99467.00
2023-02-19T01:54:30.957Z,99466.00
2023-02-19T01:55:30.985Z,99465.00
2023-02-19T01:56:31.009Z,99465.00
2023-02-19T01:57:31.036Z,99460.00
2023-02-19T01:58:31.052Z,99468.00
2023-02-19T01:59:31.118Z,99470.00
2023-02-19T02:00:31.126Z,99472.00
2023-02-19T02:01:31.091Z,99472.00
2023-02-19T02:02:31.113Z,99471.00
2023-02-19T02:03:31.147Z,99463.00
2023-02-19T02:04:31.182Z,99459.00
2023-02-19T02:05:31.209Z,99455.00
2023-02-19T02:06:31.180Z,99455.00
2023-02-19T02:07:31.180Z,99454.00
2023-02-19T02:08:31.193Z,99453.00
2023-02-19T02:09:31.497Z,99454.00
2023-02-19T02:10:31.240Z,99452.00
2023-02-19T02:11:31.303Z,99446.00
2023-02-19T02:12:31.275Z,99449.00
2023-02-19T02:13:31.296Z,99448.00
2023-02-19T02:14:31.327Z,99448.00
2023-02-19T02:15:31.343Z,99443.00
2023-02-19T02:16:31.560Z,99448.00
2023-02-19T02:17:31.353Z,99446.00
2023-02-19T02:18:31.380Z,99444.00
2023-02-19T02:19:31.410Z,99445.00
2023-02-19T02:20:31.433Z,99446.00
2023-02-19T02:21:31.476Z,99448.00
2023-02-19T02:22:31.444Z,99442.00
2023-02-19T02:23:31.472Z,99441.00
2023-02-19T02:24:31.524Z,99439.00
2023-02-19T02:25:31.489Z,99434.00
2023-02-19T02:26:31.512Z,99436.00
2023-02-19T02:27:31.523Z,99438.00
2023-02-19T02:28:31.553Z,99435.00
2023-02-19T02:29:31.603Z,99439.00
2023-02-19T02:30:31.609Z,99436.00
2023-02-19T02:31:31.659Z,99438.00
2023-02-19T02:32:31.578Z,99442.00
2023-02-19T02:33:31.601Z,99439.00
2023-02-19T02:34:31.625Z,99428.00
2023-02-19T02:35:31.660Z,99439.00
2023-02-19T02:36:31.637Z,99434.00
2023-02-19T02:37:31.683Z,99438.00
2023-02-19T02:38:31.649Z,99439.00
2023-02-19T02:39:31.684Z,99436.00
2023-02-19T02:40:31.710Z,99436.00
2023-02-19T02:41:31.721Z,99438.00
2023-02-19T02:42:31.750Z,99437.00
2023-02-19T02:43:31.794Z,99441.00
2023-02-19T02:44:31.777Z,99429.00
2023-02-19T02:45:31.841Z,99430.00
2023-02-19T02:46:31.789Z,99426.00
2023-02-19T02:47:31.804Z,99425.00
2023-02-19T02:48:31.860Z,99425.00
2023-02-19T02:49:31.826Z,99432.00
2023-02-19T02:50:31.843Z,99428.00
2023-02-19T02:51:31.890Z,99429.00
2023-02-19T02:52:31.857Z,99426.00
2023-02-19T02:53:31.887Z,99427.00
2023-02-19T02:54:31.870Z,99422.00
2023-02-19T02:55:31.889Z,99420.00
2023-02-19T02:56:31.925Z,99407.00
2023-02-19T02:57:31.887Z,99411.00
2023-02-19T02:58:31.911Z,99410.00
2023-02-19T02:59:31.935Z,99413.00
2023-02-19T03:00:31.963Z,99410.00
2023-02-19T03:01:32.001Z,99407.00
2023-02-19T03:02:32.102Z,99410.00
2023-02-19T03:03:32.033Z,99409.00
2023-02-19T03:04:32.007Z,99404.00
2023-02-19T03:05:32.015Z,99401.00
2023-02-19T03:06:31.994Z,99400.00
2023-02-19T03:07:32.027Z,99403.00
2023-02-19T03:08:32.051Z,99398.00
2023-02-19T03:09:32.029Z,99401.00
2023-02-19T03:10:32.050Z,99405.00
2023-02-19T03:11:32.080Z,99405.00
2023-02-19T03:12:32.098Z,99403.00
2023-02-19T03:13:32.137Z,99399.00
2023-02-19T03:14:32.157Z,99404.00
2023-02-19T03:15:32.182Z,99399.00
2023-02-19T03:16:32.277Z,99400.00
2023-02-19T03:17:32.204Z,99401.00
2023-02-19T03:18:32.240Z,99402.00
2023-02-19T03:19:32.222Z,99408.00
2023-02-19T03:20:32.238Z,99412.00
2023-02-19T03:21:32.250Z,99415.00
2023-02-19T03:22:32.272Z,99408.00
2023-02-19T03:23:32.314Z,99411.00
2023-02-19T03:24:32.292Z,99404.00
2023-02-19T03:25:32.306Z,99405.00
2023-02-19T03:26:32.336Z,99402.00
2023-02-19T03:27:32.366Z,99392.00
2023-02-19T03:28:32.391Z,99398.00
2023-02-19T03:29:32.377Z,99389.00
2023-02-19T03:30:32.482Z,99397.00
2023-02-19T03:31:32.439Z,99399.00
2023-02-19T03:32:32.412Z,99398.00
2023-02-19T03:33:32.460Z,99400.00
2023-02-19T03:34:32.448Z,99399.00
2023-02-19T03:35:32.472Z,99396.00
2023-02-19T03:36:32.503Z,99399.00
2023-02-19T03:37:32.523Z,99397.00
2023-02-19T03:38:32.799Z,99394.00
2023-02-19T03:39:32.543Z,99394.00
2023-02-19T03:40:32.571Z,99392.00
2023-02-19T03:41:32.584Z,99388.00
2023-02-19T03:42:32.610Z,99382.00
2023-02-19T03:43:32.639Z,99392.00
2023-02-19T03:44:32.669Z,99388.00
2023-02-19T03:45:32.697Z,99397.00
2023-02-19T03:46:32.680Z,99398.00
2023-02-19T03:47:32.669Z,99403.00
2023-02-19T03:48:32.696Z,99404.00
2023-02-19T03:49:32.725Z,99404.00
2023-02-19T03:50:32.746Z,99405.00
2023-02-19T03:51:32.766Z,99406.00
2023-02-19T03:52:32.775Z,99403.00
2023-02-19T03:53:32.816Z,99391.00
2023-02-19T03:54:32.798Z,99397.00
2023-02-19T03:55:32.804Z,99395.00
2023-02-19T03:56:32.821Z,99392.00
2023-02-19T03:57:32.851Z,99387.00
2023-02-19T03:58:32.879Z,99390.00
2023-02-19T03:59:32.873Z,99388.00
2023-02-19T04:00:32.863Z,99392.00
2023-02-19T04:01:32.874Z,99378.00
2023-02-19T04:02:32.939Z,99385.00
2023-02-19T04:03:33.838Z,99380.00
2023-02-19T04:04:32.994Z,99383.00
2023-02-19T04:05:32.904Z,99383.00
2023-02-19T04:06:32.926Z,99388.00
2023-02-19T04:07:32.961Z,99398.00
2023-02-19T04:08:32.971Z,99402.00
2023-02-19T04:09:33.005Z,99396.00
2023-02-19T04:10:32.985Z,99398.00
2023-02-19T04:11:33.010Z,99415.00
2023-02-19T04:12:33.024Z,99400.00
2023-02-19T04:13:33.050Z,99399.00
2023-02-19T04:14:33.081Z,99396.00
2023-02-19T04:15:33.113Z,99398.00
2023-02-19T04:16:33.105Z,99394.00
2023-02-19T04:17:33.102Z,99394.00
2023-02-19T04:18:33.127Z,99385.00
2023-02-19T04:19:33.180Z,99383.00
2023-02-19T04:20:33.147Z,99384.00
2023-02-19T04:21:33.178Z,99390.00
2023-02-19T04:22:33.197Z,99391.00
2023-02-19T04:23:33.234Z,99394.00
2023-02-19T04:24:33.208Z,99395.00
2023-02-19T04:25:33.247Z,99396.00
2023-02-19T04:26:33.225Z,99403.00
2023-02-19T04:27:33.245Z,99404.00
2023-02-19T04:28:33.280Z,99403.00
2023-02-19T04:29:33.309Z,99406.00
2023-02-19T04:30:33.429Z,99403.00
2023-02-19T04:31:33.426Z,99399.00
2023-02-19T04:32:33.309Z,99400.00
2023-02-19T04:33:33.334Z,99402.00
2023-02-19T04:34:33.368Z,99404.00
2023-02-19T04:35:33.375Z,99402.00
2023-02-19T04:36:33.354Z,99410.00
2023-02-19T04:37:33.382Z,99408.00
2023-02-19T04:38:33.399Z,99400.00
2023-02-19T04:39:33.446Z,99398.00
2023-02-19T04:40:33.453Z,99404.00
2023-02-19T04:41:33.422Z,99412.00
2023-02-19T04:42:33.456Z,99405.00
2023-02-19T04:43:33.435Z,99408.00
2023-02-19T04:44:33.458Z,99400.00
2023-02-19T04:45:33.476Z,99395.00
2023-02-19T04:46:33.507Z,99388.00
2023-02-19T04:47:33.551Z,99397.00
2023-02-19T04:48:33.530Z,99398.00
2023-02-19T04:49:33.563Z,99393.00
2023-02-19T04:50:33.593Z,99396.00
2023-02-19T04:51:33.580Z,99398.00
2023-02-19T04:52:33.595Z,99396.00
2023-02-19T04:53:33.608Z,99395.00
2023-02-19T04:54:33.631Z,99392.00
2023-02-19T04:55:33.898Z,99394.00
2023-02-19T04:56:33.654Z,99401.00
2023-02-19T04:57:33.666Z,99409.00
2023-02-19T04:58:33.670Z,99416.00
2023-02-19T04:59:33.691Z,99416.00
2023-02-19T05:00:33.708Z,99416.00
2023-02-19T05:01:33.809Z,99413.00
2023-02-19T05:02:33.725Z,99412.00
2023-02-19T05:03:33.737Z,99412.00
2023-02-19T05:04:33.800Z,99417.00
2023-02-19T05:05:34.284Z,99423.00
2023-02-19T05:06:33.812Z,99427.00
2023-02-19T05:07:33.832Z,99419.00
2023-02-19T05:08:33.864Z,99421.00
2023-02-19T05:09:33.887Z,99423.00
2023-02-19T05:10:33.905Z,99430.00
2023-02-19T05:11:33.934Z,99427.00
2023-02-19T05:12:33.960Z,99423.00
2023-02-19T05:13:34.039Z,99423.00
2023-02-19T05:14:33.998Z,99425.00
2023-02-19T05:15:34.066Z,99435.00
2023-02-19T05:16:33.995Z,99431.00
2023-02-19T05:17:34.036Z,99431.00
2023-02-19T05:18:34.007Z,99434.00
2023-02-19T05:19:34.017Z,99439.00
2023-02-19T05:20:34.052Z,99436.00
2023-02-19T05:21:34.042Z,99438.00
2023-02-19T05:22:34.031Z,99443.00
2023-02-19T05:23:34.019Z,99441.00
2023-02-19T05:24:34.042Z,99439.00
2023-02-19T05:25:34.071Z,99442.00
2023-02-19T05:26:34.101Z,99444.00
2023-02-19T05:27:34.136Z,99443.00
2023-02-19T05:28:34.163Z,99438.00
2023-02-19T05:29:34.142Z,99446.00
2023-02-19T05:30:34.233Z,99438.00
2023-02-19T05:31:34.257Z,99447.00
2023-02-19T05:32:34.176Z,99452.00
2023-02-19T05:33:34.202Z,99448.00
2023-02-19T05:34:34.225Z,99447.00
2023-02-19T05:35:34.250Z,99456.00
2023-02-19T05:36:34.275Z,99450.00
2023-02-19T05:37:34.257Z,99453.00
2023-02-19T05:38:34.289Z,99458.00
2023-02-19T05:39:34.268Z,99453.00
2023-02-19T05:40:34.294Z,99447.00
2023-02-19T05:41:34.342Z,99457.00
2023-02-19T05:42:34.335Z,99452.00
2023-02-19T05:43:34.352Z,99456.00
2023-02-19T05:44:34.380Z,99453.00
2023-02-19T05:45:34.403Z,99447.00
2023-02-19T05:46:34.470Z,99444.00
2023-02-19T05:47:34.451Z,99440.00
2023-02-19T05:48:34.433Z,99441.00
2023-02-19T05:49:34.447Z,99448.00
2023-02-19T05:50:34.525Z,99448.00
2023-02-19T05:51:34.504Z,99453.00
2023-02-19T05:52:34.529Z,99451.00
2023-02-19T05:53:34.558Z,99460.00
2023-02-19T05:54:34.573Z,99459.00
2023-02-19T05:55:34.610Z,99461.00
2023-02-19T05:56:34.589Z,99456.00
2023-02-19T05:57:34.612Z,99458.00
2023-02-19T05:58:34.642Z,99457.00
2023-02-19T05:59:34.676Z,99452.00
2023-02-19T06:00:34.714Z,99456.00
2023-02-19T06:01:34.692Z,99458.00
2023-02-19T06:02:34.990Z,99463.00
2023-02-19T06:03:34.820Z,99463.00
2023-02-19T06:04:34.713Z,99466.00
2023-02-19T06:05:35.011Z,99464.00
2023-02-19T06:06:34.764Z,99468.00
2023-02-19T06:07:34.748Z,99467.00
2023-02-19T06:08:34.779Z,99467.00
2023-02-19T06:09:35.031Z,99463.00
2023-02-19T06:10:34.852Z,99472.00
2023-02-19T06:11:34.822Z,99474.00
2023-02-19T06:12:34.849Z,99470.00
2023-02-19T06:13:34.878Z,99474.00
2023-02-19T06:14:34.899Z,99472.00
2023-02-19T06:15:34.932Z,99468.00
2023-02-19T06:16:34.956Z,99465.00
2023-02-19T06:17:34.969Z,99467.00
2023-02-19T06:18:35.010Z,99467.00
2023-02-19T06:19:34.973Z,99465.00
2023-02-19T06:20:35.246Z,99472.00
2023-02-19T06:21:35.009Z,99482.00
2023-02-19T06:22:35.027Z,99476.00
2023-02-19T06:23:35.047Z,99478.00
2023-02-19T06:24:35.070Z,99478.00
2023-02-19T06:25:35.090Z,99478.00
2023-02-19T06:26:35.127Z,99478.00
2023-02-19T06:27:35.143Z,99482.00
2023-02-19T06:28:35.140Z,99477.00
2023-02-19T06:29:35.167Z,99481.00
2023-02-19T06:30:35.264Z,99478.00
2023-02-19T06:31:35.278Z,99480.00
2023-02-19T06:32:35.229Z,99478.00
2023-02-19T06:33:35.222Z,99475.00
2023-02-19T06:34:35.205Z,99477.00
2023-02-19T06:35:35.249Z,99480.00
2023-02-19T06:36:35.257Z,99479.00
2023-02-19T06:37:35.251Z,99482.00
2023-02-19T06:38:35.242Z,99482.00
2023-02-19T06:39:35.265Z,99484.00
2023-02-19T06:40:35.301Z,99483.00
2023-02-19T06:41:35.296Z,99485.00
2023-02-19T06:42:35.321Z,99494.00
2023-02-19T06:43:35.319Z,99481.00
2023-02-19T06:44:35.298Z,99484.00
2023-02-19T06:45:35.363Z,99485.00
2023-02-19T06:46:35.378Z,99484.00
2023-02-19T06:47:35.386Z,99484.00
2023-02-19T06:48:35.390Z,99487.00
2023-02-19T06:49:35.373Z,99490.00
2023-02-19T06:50:35.388Z,99495.00
2023-02-19T06:51:35.377Z,99496.00
2023-02-19T06:52:35.413Z,99501.00
2023-02-19T06:53:35.416Z,99500.00
2023-02-19T06:54:35.394Z,99510.00
2023-02-19T06:55:35.435Z,99505.00
2023-02-19T06:56:35.425Z,99503.00
2023-02-19T06:57:35.447Z,99509.00
2023-02-19T06:58:35.434Z,99506.00
2023-02-19T06:59:35.449Z,99512.00
2023-02-19T07:00:35.759Z,99512.00
2023-02-19T07:01:35.477Z,99508.00
2023-02-19T07:02:35.466Z,99512.00
2023-02-19T07:03:35.496Z,99513.00
2023-02-19T07:04:35.534Z,99523.00
2023-02-19T07:05:35.558Z,99514.00
2023-02-19T07:06:35.547Z,99514.00
2023-02-19T07:07:35.525Z,99520.00
2023-02-19T07:08:35.563Z,99525.00
2023-02-19T07:09:35.547Z,99519.00
2023-02-19T07:10:35.592Z,99525.00
2023-02-19T07:11:35.617Z,99529.00
2023-02-19T07:12:35.610Z,99528.00
2023-02-19T07:13:35.632Z,99529.00
2023-02-19T07:14:35.661Z,99529.00
2023-02-19T07:15:35.707Z,99528.00
2023-02-19T07:16:35.796Z,99534.00
2023-02-19T07:17:35.718Z,99537.00
2023-02-19T07:18:35.748Z,99536.00
2023-02-19T07:19:35.741Z,99536.00
2023-02-19T07:20:35.757Z,99537.00
2023-02-19T07:21:35.743Z,99543.00
2023-02-19T07:22:35.762Z,99546.00
2023-02-19T07:23:35.755Z,99550.00
2023-02-19T07:24:35.736Z,99549.00
2023-02-19T07:25:35.773Z,99544.00
2023-02-19T07:26:35.765Z,99548.00
2023-02-19T07:27:35.750Z,99547.00
2023-02-19T07:28:35.772Z,99550.00
2023-02-19T07:29:35.807Z,99550.00
2023-02-19T07:30:35.905Z,99548.00
2023-02-19T07:31:35.964Z,99557.00
2023-02-19T07:32:35.824Z,99553.00
2023-02-19T07:33:35.814Z,99553.00
2023-02-19T07:34:35.804Z,99548.00
2023-02-19T07:35:35.843Z,99545.00
2023-02-19T07:36:35.831Z,99546.00
2023-02-19T07:37:35.820Z,99551.00
2023-02-19T07:38:35.808Z,99552.00
2023-02-19T07:39:35.798Z,99550.00
2023-02-19T07:40:35.805Z,99557.00
2023-02-19T07:41:35.794Z,99558.00
2023-02-19T07:42:35.812Z,99558.00
2023-02-19T07:43:35.848Z,99562.00
2023-02-19T07:44:35.869Z,99567.00
2023-02-19T07:45:35.959Z,99564.00
2023-02-19T07:46:35.920Z,99567.00
2023-02-19T07:47:35.954Z,99566.00
2023-02-19T07:48:35.978Z,99561.00
2023-02-19T07:49:36.030Z,99557.00
2023-02-19T07:50:36.012Z,99562.00
2023-02-19T07:51:36.001Z,99564.00
2023-02-19T07:52:36.043Z,99565.00
2023-02-19T07:53:36.018Z,99571.00
2023-02-19T07:54:36.055Z,99568.00
2023-02-19T07:55:36.090Z,99570.00
2023-02-19T07:56:36.087Z,99578.00
2023-02-19T07:57:36.065Z,99581.00
2023-02-19T07:58:36.059Z,99582.00
2023-02-19T07:59:36.112Z,99577.00
2023-02-19T08:00:36.107Z,99578.00
2023-02-19T08:01:36.136Z,99580.00
2023-02-19T08:02:36.114Z,99579.00
2023-02-19T08:03:36.144Z,99577.00
2023-02-19T08:04:36.075Z,99577.00
2023-02-19T08:05:36.115Z,99583.00
2023-02-19T08:06:36.115Z,99589.00
2023-02-19T08:07:36.118Z,99592.00
2023-02-19T08:08:36.145Z,99587.00
2023-02-19T08:09:36.133Z,99593.00
2023-02-19T08:10:36.131Z,99594.00
2023-02-19T08:11:37.326Z,99591.00
2023-02-19T08:12:36.130Z,99596.00
2023-02-19T08:13:36.162Z,99595.00
2023-02-19T08:14:36.158Z,99598.00
2023-02-19T08:15:36.144Z,99596.00
2023-02-19T08:16:42.857Z,99609.00
2023-02-19T08:17:36.143Z,99602.00
2023-02-19T08:18:36.129Z,99610.00
2023-02-19T08:19:36.162Z,99610.00
2023-02-19T08:20:36.187Z,99613.00
2023-02-19T08:21:36.240Z,99609.00
2023-02-19T08:22:36.223Z,99612.00
2023-02-19T08:23:36.213Z,99620.00
2023-02-19T08:24:36.242Z,99614.00
2023-02-19T08:25:36.248Z,99614.00
2023-02-19T08:26:36.275Z,99614.00
2023-02-19T08:27:36.248Z,99615.00
2023-02-19T08:28:36.270Z,99618.00
2023-02-19T08:29:36.287Z,99618.00
2023-02-19T08:30:36.410Z,99617.00
2023-02-19T08:31:36.471Z,99620.00
2023-02-19T08:32:36.349Z,99624.00
2023-02-19T08:33:36.336Z,99630.00
2023-02-19T08:34:36.362Z,99622.00
2023-02-19T08:35:36.392Z,99626.00
2023-02-19T08:36:36.422Z,99631.00
2023-02-19T08:37:36.407Z,99626.00
2023-02-19T08:38:36.435Z,99638.00
2023-02-19T08:39:36.428Z,99645.00
2023-02-19T08:40:36.418Z,99650.00
2023-02-19T08:41:36.413Z,99653.00
2023-02-19T08:42:36.400Z,99652.00
2023-02-19T08:43:36.396Z,99654.00
2023-02-19T08:44:36.382Z,99656.00
2023-02-19T08:45:36.365Z,99658.00
2023-02-19T08:46:36.355Z,99659.00
2023-02-19T08:47:36.388Z,99663.00
2023-02-19T08:48:36.376Z,99659.00
2023-02-19T08:49:36.404Z,99661.00
2023-02-19T08:50:36.389Z,99662.00
2023-02-19T08:51:36.428Z,99661.00
2023-02-19T08:52:36.425Z,99662.00
2023-02-19T08:53:36.415Z,99669.00
2023-02-19T08:54:37.298Z,99672.00
2023-02-19T08:55:36.396Z,99681.00
2023-02-19T08:56:36.427Z,99679.00
2023-02-19T08:57:36.452Z,99688.00
2023-02-19T08:58:36.446Z,99691.00
2023-02-19T08:59:36.426Z,99693.00
2023-02-19T09:00:36.420Z,99703.00
2023-02-19T09:01:36.461Z,99704.00
2023-02-19T09:02:36.453Z,99700.00
2023-02-19T09:03:36.439Z,99700.00
2023-02-19T09:04:36.476Z,99698.00
2023-02-19T09:05:36.524Z,99698.00
2023-02-19T09:06:38.507Z,99701.00
2023-02-19T09:07:36.520Z,99705.00
2023-02-19T09:08:36.549Z,99704.00
2023-02-19T09:09:36.538Z,99703.00
2023-02-19T09:10:36.569Z,99705.00
2023-02-19T09:11:36.630Z,99706.00
2023-02-19T09:12:36.608Z,99707.00
2023-02-19T09:13:36.591Z,99714.00
2023-02-19T09:14:36.624Z,99710.00
2023-02-19T09:15:36.681Z,99716.00
2023-02-19T09:16:36.652Z,99716.00
2023-02-19T09:17:36.633Z,99711.00
2023-02-19T09:18:36.657Z,99710.00
2023-02-19T09:19:36.679Z,99706.00
2023-02-19T09:20:36.715Z,99709.00
2023-02-19T09:21:36.770Z,99715.00
2023-02-19T09:22:36.777Z,99709.00
2023-02-19T09:23:36.842Z,99711.00
2023-02-19T09:24:36.802Z,99702.00
2023-02-19T09:25:36.793Z,99703.00
2023-02-19T09:26:38.593Z,99709.00
2023-02-19T09:27:36.787Z,99708.00
2023-02-19T09:28:36.770Z,99702.00
2023-02-19T09:29:36.766Z,99706.00
2023-02-19T09:30:36.859Z,99706.00
2023-02-19T09:31:36.955Z,99708.00
2023-02-19T09:32:36.807Z,99711.00
2023-02-19T09:33:36.792Z,99710.00
2023-02-19T09:34:36.775Z,99706.00
2023-02-19T09:35:36.785Z,99706.00
2023-02-19T09:36:36.833Z,99704.00
2023-02-19T09:37:36.859Z,99702.00
2023-02-19T09:38:36.842Z,99706.00
2023-02-19T09:39:36.893Z,99702.00
2023-02-19T09:40:36.886Z,99701.00
2023-02-19T09:41:36.919Z,99694.00
2023-02-19T09:42:36.910Z,99697.00
2023-02-19T09:43:36.934Z,99694.00
2023-02-19T09:44:36.930Z,99694.00
2023-02-19T09:45:36.913Z,99698.00
2023-02-19T09:46:36.908Z,99699.00
2023-02-19T09:47:36.888Z,99693.00
2023-02-19T09:48:36.877Z,99698.00
2023-02-19T09:49:36.930Z,99694.00
2023-02-19T09:50:36.908Z,99705.00
2023-02-19T09:51:36.895Z,99707.00
2023-02-19T09:52:36.885Z,99707.00
2023-02-19T09:53:36.881Z,99711.00
2023-02-19T09:54:36.875Z,99718.00
2023-02-19T09:55:36.866Z,99716.00
2023-02-19T09:56:36.851Z,99722.00
2023-02-19T09:57:36.901Z,99730.00
2023-02-19T09:58:36.924Z,99729.00
2023-02-19T09:59:36.933Z,99737.00
2023-02-19T10:00:36.945Z,99738.00
2023-02-19T10:01:36.937Z,99741.00
2023-02-19T10:02:36.952Z,99740.00
2023-02-19T10:03:36.977Z,99740.00
2023-02-19T10:04:36.980Z,99739.00
2023-02-19T10:05:37.001Z,99734.00
2023-02-19T10:06:37.018Z,99729.00
2023-02-19T10:07:37.073Z,99734.00
2023-02-19T10:08:37.059Z,99740.00
2023-02-19T10:09:37.072Z,99742.00
2023-02-19T10:10:37.053Z,99743.00
2023-02-19T10:11:37.073Z,99737.00
2023-02-19T10:12:37.100Z,99741.00
2023-02-19T10:13:37.093Z,99740.00
2023-02-19T10:14:37.134Z,99743.00
2023-02-19T10:15:37.194Z,99749.00
2023-02-19T10:16:37.176Z,99745.00
2023-02-19T10:17:37.200Z,99748.00
2023-02-19T10:18:37.243Z,99749.00
2023-02-19T10:19:37.236Z,99746.00
2023-02-19T10:20:37.219Z,99755.00
2023-02-19T10:21:37.211Z,99764.00
2023-02-19T10:22:37.203Z,99761.00
2023-02-19T10:23:37.248Z,99767.00
2023-02-19T10:24:38.606Z,99763.00
2023-02-19T10:25:37.258Z,99761.00
2023-02-19T10:26:37.242Z,99768.00
2023-02-19T10:27:37.465Z,99762.00
2023-02-19T10:28:37.215Z,99764.00
2023-02-19T10:29:37.201Z,99763.00
2023-02-19T10:30:37.320Z,99763.00
2023-02-19T10:31:37.329Z,99769.00
2023-02-19T10:32:37.216Z,99765.00
2023-02-19T10:33:37.254Z,99770.00
2023-02-19T10:34:37.272Z,99776.00
2023-02-19T10:35:37.321Z,99776.00
2023-02-19T10:36:37.301Z,99773.00
2023-02-19T10:37:37.288Z,99777.00
2023-02-19T10:38:37.284Z,99781.00
2023-02-19T10:39:37.411Z,99780.00
2023-02-19T10:40:37.315Z,99780.00
2023-02-19T10:41:37.286Z,99785.00
2023-02-19T10:42:37.318Z,99785.00
2023-02-19T10:43:37.582Z,99784.00
2023-02-19T10:44:37.342Z,99785.00
2023-02-19T10:45:37.339Z,99785.00
2023-02-19T10:46:37.405Z,99787.00
2023-02-19T10:47:37.308Z,99788.00
2023-02-19T10:48:37.359Z,99788.00
2023-02-19T10:49:37.342Z,99787.00
2023-02-19T10:50:37.366Z,99789.00
2023-02-19T10:51:37.404Z,99791.00
2023-02-19T10:52:37.397Z,99786.00
2023-02-19T10:53:37.382Z,99791.00
2023-02-19T10:54:37.369Z,99786.00
2023-02-19T10:55:38.113Z,99790.00
2023-02-19T10:56:37.398Z,99791.00
2023-02-19T10:57:37.437Z,99794.00
2023-02-19T10:58:37.441Z,99791.00
2023-02-19T10:59:37.463Z,99797.00
2023-02-19T11:00:37.495Z,99796.00
2023-02-19T11:01:37.514Z,99793.00
2023-02-19T11:02:37.514Z,99798.00
2023-02-19T11:03:37.513Z,99793.00
2023-02-19T11:04:37.553Z,99802.00
2023-02-19T11:05:37.503Z,99804.00
2023-02-19T11:06:37.526Z,99801.00
2023-02-19T11:07:37.585Z,99794.00
2023-02-19T11:08:37.564Z,99808.00
2023-02-19T11:09:37.552Z,99808.00
2023-02-19T11:10:37.591Z,99811.00
2023-02-19T11:11:37.574Z,99811.00
2023-02-19T11:12:37.596Z,99809.00
2023-02-19T11:13:37.626Z,99807.00
2023-02-19T11:14:37.667Z,99814.00
2023-02-19T11:15:37.700Z,99816.00
2023-02-19T11:16:37.691Z,99814.00
2023-02-19T11:17:37.721Z,99820.00
2023-02-19T11:18:37.757Z,99825.00
2023-02-19T11:19:37.859Z,99821.00
2023-02-19T11:20:37.803Z,99828.00
2023-02-19T11:21:37.784Z,99824.00
2023-02-19T11:22:37.825Z,99822.00
2023-02-19T11:23:37.819Z,99819.00
2023-02-19T11:24:37.838Z,99817.00
2023-02-19T11:25:37.829Z,99823.00
2023-02-19T11:26:37.813Z,99827.00
2023-02-19T11:27:37.840Z,99824.00
2023-02-19T11:28:37.838Z,99821.00
2023-02-19T11:29:37.829Z,99823.00
2023-02-19T11:30:37.872Z,99825.00
2023-02-19T11:31:37.954Z,99820.00
2023-02-19T11:32:37.854Z,99825.00
2023-02-19T11:33:37.892Z,99819.00
2023-02-19T11:34:37.885Z,99819.00
2023-02-19T11:35:37.869Z,99822.00
2023-02-19T11:36:37.897Z,99830.00
2023-02-19T11:37:37.932Z,99828.00
2023-02-19T11:38:37.931Z,99828.00
2023-02-19T11:39:37.916Z,99828.00
2023-02-19T11:40:37.962Z,99830.00
2023-02-19T11:41:37.940Z,99835.00
2023-02-19T11:42:37.958Z,99832.00
2023-02-19T11:43:37.949Z,99832.00
2023-02-19T11:44:37.939Z,99830.00